• Join FlightAware (Why Join?)
  • Login
  • US Flag 
12:04PM EDT


 

Airport Tracker/Info


-or-


 

Live Flight TrackerFlight Track Log ✈ UAL1444 ✈ 09-May-2013 ✈ KIAH - KSAT

Flight Track Log - Related Links

Times and Time Zones

All times are in EDT time to prevent confusion due to time zone crossing. See the UAL1444 flight status page for this flight to view local times or setup timezone preferences in your user account.

Time Position Orientation Groundspeed Altitude Reporting Facility
EDT Latitude Longitude Course Direction KTS MPH feet Rate Location/Type
06:08PM 29.9558 -95.3392 161° South 163 188 900  Level FlightAware ADS-B
06:09PM 29.9533 -95.3388 172° South 164 189 1,000 1,680 Climbing FlightAware ADS-B
06:09PM 29.9505 -95.3389 182° South 166 191 1,100 1,800 Climbing FlightAware ADS-B
06:09PM 29.9456 -95.3404 195° South 177 204 1,300 1,320 Climbing FlightAware ADS-B
06:09PM 29.9431 -95.3420 209° Southwest 186 214 1,300 1,500 Level FlightAware ADS-B
06:09PM 29.9398 -95.3453 221° Southwest 196 226 1,500 1,980 Climbing FlightAware ADS-B
06:09PM 29.9374 -95.3483 227° Southwest 204 235 1,600 2,400 Climbing FlightAware ADS-B
06:09PM 29.9265 -95.3627 229° Southwest 216 249 2,300 3,180 Climbing FlightAware ADS-B
06:09PM 29.9188 -95.3732 230° Southwest 211 243 3,100 3,660 Climbing FlightAware ADS-B
06:09PM 29.9153 -95.3779 229° Southwest 211 243 3,400 1,860 Climbing FlightAware ADS-B
06:10PM 29.9074 -95.3855 220° Southwest 219 252 3,600 1,020 Climbing FlightAware ADS-B
06:10PM 29.9012 -95.3881 200° South 222 255 3,700 960 Climbing FlightAware ADS-B
06:10PM 29.8960 -95.3888 187° South 223 257 3,800 600 Climbing FlightAware ADS-B
06:10PM 29.8799 -95.3902 184° South 225 259 3,900 1,020 Climbing FlightAware ADS-B
06:10PM 29.8601 -95.3917 184° South 234 269 4,400 2,280 Climbing FlightAware ADS-B
06:11PM 29.8412 -95.3928 183° South 238 274 5,300 2,880 Climbing FlightAware ADS-B
06:11PM 29.8239 -95.3941 184° South 241 277 6,000 2,820 Climbing FlightAware ADS-B
06:11PM 29.8182 -95.3960 196° South 244 281 6,300 2,640 Climbing FlightAware ADS-B
06:11PM 29.8142 -95.3982 206° Southwest 244 281 6,400 2,520 Climbing FlightAware ADS-B
06:11PM 29.8114 -95.4004 214° Southwest 246 283 6,600 3,420 Climbing FlightAware ADS-B
06:11PM 29.8073 -95.4045 221° Southwest 248 285 6,800 3,000 Climbing FlightAware ADS-B
06:11PM 29.8049 -95.4077 229° Southwest 249 287 7,000 3,300 Climbing FlightAware ADS-B
06:11PM 29.8012 -95.4143 237° Southwest 252 290 7,300 3,300 Climbing FlightAware ADS-B
06:11PM 29.7994 -95.4188 245° Southwest 254 292 7,500 3,720 Climbing FlightAware ADS-B
06:11PM 29.7973 -95.4243 246° West 255 293 7,800 3,300 Climbing FlightAware ADS-B
06:12PM 29.7905 -95.4436 248° West 256 295 8,600 3,180 Climbing FlightAware ADS-B
06:12PM 29.7840 -95.4642 250° West 256 295 9,500 3,180 Climbing FlightAware ADS-B
06:13PM 29.7716 -95.5031 250° West 254 292 11,100 2,820 Climbing FlightAware ADS-B
06:13PM 29.7594 -95.5414 250° West 261 300 12,400 2,580 Climbing FlightAware ADS-B
06:13PM 29.7579 -95.5512 260° West 266 306 12,700 2,280 Climbing FlightAware ADS-B
06:13PM 29.7572 -95.5598 265° West 270 311 12,900 1,800 Climbing FlightAware ADS-B
06:13PM 29.7570 -95.5697 269° West 278 320 13,100 1,080 Climbing FlightAware ADS-B
06:14PM 29.7581 -95.6095 272° West 311 358 13,500 960 Climbing FlightAware ADS-B
06:14PM 29.7598 -95.6537 273° West 340 391 13,900 1,680 Climbing FlightAware ADS-B
06:15PM 29.7621 -95.7102 273° West 351 404 15,100 2,400 Climbing FlightAware ADS-B
06:15PM 29.7643 -95.7682 273° West 356 410 16,400 2,100 Climbing FlightAware ADS-B
06:16PM 29.7661 -95.8163 272° West 356 410 17,100 720 Climbing FlightAware ADS-B
06:16PM 29.7685 -95.8741 273° West 355 409 17,100 1,080 Level FlightAware ADS-B
06:17PM 29.7707 -95.9316 273° West 353 406 18,200 2,760 Climbing FlightAware ADS-B
06:17PM 29.7723 -95.9881 272° West 340 391 20,000 3,480 Climbing FlightAware ADS-B
06:17PM 29.7731 -96.0095 272° West 336 387 20,700 3,300 Climbing FlightAware ADS-B
06:17PM 29.7748 -96.0203 280° West 337 388 21,000 2,460 Climbing FlightAware ADS-B
06:18PM 29.7775 -96.0301 288° West 339 390 21,200 1,980 Climbing FlightAware ADS-B
06:18PM 29.7795 -96.0349 296° West 341 392 21,300 2,220 Climbing FlightAware ADS-B
06:18PM 29.7839 -96.0435 301° West 343 395 21,500 1,200 Climbing FlightAware ADS-B
06:18PM 29.8113 -96.0889 305° West 343 395 22,000 480 Climbing FlightAware ADS-B
06:19PM 29.8395 -96.1337 306° West 342 394 22,000  Level FlightAware ADS-B
06:19PM 29.8604 -96.1679 305° West 341 392 22,000  Level FlightAware ADS-B
06:19PM 29.8636 -96.1743 300° West 338 389 22,000  Level FlightAware ADS-B
06:19PM 29.8663 -96.1816 293° West 335 386 22,000  Level FlightAware ADS-B
06:19PM 29.8687 -96.1899 288° West 334 384 22,000  Level FlightAware ADS-B
06:19PM 29.8701 -96.1973 282° West 332 382 22,000  Level FlightAware ADS-B
06:19PM 29.8709 -96.2037 278° West 332 382 22,000  Level FlightAware ADS-B
06:20PM 29.8715 -96.2170 273° West 333 383 22,000  Level FlightAware ADS-B
06:20PM 29.8723 -96.2712 271° West 335 386 22,000  Level FlightAware ADS-B
06:21PM 29.8736 -96.3253 272° West 337 388 22,000  Level FlightAware ADS-B
06:21PM 29.8751 -96.3803 272° West 338 389 22,000  Level FlightAware ADS-B
06:22PM 29.8769 -96.4469 272° West 339 390 22,000  Level FlightAware ADS-B
06:22PM 29.8782 -96.5015 272° West 340 391 22,000  Level FlightAware ADS-B
06:23PM 29.8796 -96.5596 272° West 341 392 22,000  Level FlightAware ADS-B
06:23PM 29.8809 -96.6149 272° West 344 396 22,000  Level FlightAware ADS-B
06:24PM 29.8820 -96.6746 271° West 347 399 22,000  Level FlightAware ADS-B
06:24PM 29.8829 -96.7308 271° West 348 400 22,000  Level FlightAware ADS-B
06:25PM 29.8839 -96.7868 271° West 348 400 22,000  Level FlightAware ADS-B
06:25PM 29.8850 -96.8425 271° West 348 400 22,000  Level FlightAware ADS-B
06:26PM 29.8860 -96.9025 271° West 347 399 22,000  Level FlightAware ADS-B
06:26PM 29.8867 -96.9584 271° West 347 399 22,000  Level FlightAware ADS-B
06:27PM 29.8875 -97.0165 271° West 347 399 22,000  Level FlightAware ADS-B
06:27PM 29.8884 -97.0734 271° West 346 398 22,000  Level FlightAware ADS-B
06:28PM 29.8894 -97.1315 271° West 345 397 22,000  Level FlightAware ADS-B
06:29PM 29.8903 -97.2007 271° West 345 397 22,000 -600 Level FlightAware ADS-B
06:29PM 29.8913 -97.2712 271° West 336 387 21,300 -1,020 Descending FlightAware ADS-B
06:30PM 29.8919 -97.3279 271° West 334 384 20,800 -1,020 Descending FlightAware ADS-B
06:30PM 29.8920 -97.3357 271° West 334 384 20,700 -1,020 Descending FlightAware ADS-B
06:30PM 29.8927 -97.3907 271° West 334 384 20,200 -1,020 Descending FlightAware ADS-B
06:31PM 29.8934 -97.4449 271° West 327 376 19,700 -1,020 Descending FlightAware ADS-B
06:31PM 29.8940 -97.4967 271° West 324 373 19,200 -1,200 Descending FlightAware ADS-B
06:32PM 29.8947 -97.5480 271° West 316 364 18,500 -1,620 Descending FlightAware ADS-B
06:32PM 29.8952 -97.5993 271° West 312 359 17,600 -1,920 Descending FlightAware ADS-B
06:33PM 29.8958 -97.6501 271° West 310 357 16,600 -1,800 Descending FlightAware ADS-B
06:33PM 29.8962 -97.7002 271° West 307 353 15,800 -1,680 Descending FlightAware ADS-B
06:34PM 29.8966 -97.7507 271° West 306 352 14,900 -1,800 Descending FlightAware ADS-B
06:34PM 29.8972 -97.8003 271° West 305 351 14,000 -1,740 Descending FlightAware ADS-B
06:35PM 29.8973 -97.8357 270° West 302 348 13,400 -1,740 Descending FlightAware ADS-B
06:35PM 29.8968 -97.8451 266° West 299 344 13,200 -2,040 Descending FlightAware ADS-B
06:35PM 29.8956 -97.8546 262° West 298 343 13,000 -2,220 Descending FlightAware ADS-B
06:35PM 29.8911 -97.8749 256° West 300 345 12,500 -2,040 Descending FlightAware ADS-B
06:35PM 29.8869 -97.8869 248° West 301 346 12,300 -1,500 Descending FlightAware ADS-B
06:36PM 29.8682 -97.9313 244° Southwest 296 341 11,500 -1,800 Descending FlightAware ADS-B
06:36PM 29.8499 -97.9751 244° Southwest 295 339 10,500 -1,800 Descending FlightAware ADS-B
06:37PM 29.8379 -98.0039 244° Southwest 293 337 10,000 -1,020 Descending FlightAware ADS-B
06:37PM 29.8291 -98.0247 244° Southwest 281 323 9,900 -600 Descending FlightAware ADS-B
06:37PM 29.8204 -98.0453 244° Southwest 270 311 9,700 -1,140 Descending FlightAware ADS-B
06:37PM 29.8118 -98.0658 244° Southwest 270 311 9,300 -1,560 Descending FlightAware ADS-B
06:38PM 29.8033 -98.0856 244° Southwest 269 310 8,900 -1,440 Descending FlightAware ADS-B
06:38PM 29.7951 -98.1052 244° Southwest 268 308 8,600 -1,380 Descending FlightAware ADS-B
06:38PM 29.7867 -98.1251 244° Southwest 268 308 8,200 -1,620 Descending FlightAware ADS-B
06:39PM 29.7771 -98.1483 245° Southwest 269 310 7,700 -1,680 Descending FlightAware ADS-B
06:39PM 29.7688 -98.1679 244° Southwest 270 311 7,300 -1,500 Descending FlightAware ADS-B
06:39PM 29.7594 -98.1900 244° Southwest 269 310 6,900 -1,500 Descending FlightAware ADS-B
06:39PM 29.7506 -98.2107 244° Southwest 269 310 6,500 -1,380 Descending FlightAware ADS-B
06:40PM 29.7396 -98.2365 244° Southwest 270 311 6,100 -960 Descending FlightAware ADS-B
06:40PM 29.7337 -98.2508 245° Southwest 262 302 6,000 -300 Descending FlightAware ADS-B
06:40PM 29.7314 -98.2613 256° West 259 298 6,000  Level FlightAware ADS-B
06:40PM 29.7308 -98.2692 265° West 253 291 6,000  Level FlightAware ADS-B
06:40PM 29.7303 -98.2893 268° West 238 274 6,000  Level FlightAware ADS-B
06:41PM 29.7299 -98.3119 269° West 231 266 6,000  Level FlightAware ADS-B
06:41PM 29.7292 -98.3443 269° West 234 269 6,000 -420 Level FlightAware ADS-B
06:41PM 29.7288 -98.3660 269° West 246 283 5,700 -1,320 Descending FlightAware ADS-B
06:42PM 29.7285 -98.3865 269° West 246 283 5,300 -1,200 Descending FlightAware ADS-B
06:42PM 29.7281 -98.4064 269° West 245 282 5,100 -1,020 Descending FlightAware ADS-B
06:42PM 29.7279 -98.4275 269° West 244 281 4,800 -1,140 Descending FlightAware ADS-B
06:42PM 29.7277 -98.4479 269° West 241 277 4,500 -600 Descending FlightAware ADS-B
06:43PM 29.7260 -98.5000 268° West 239 275 4,200 -600 Descending FlightAware
06:43PM 29.7270 -98.5080 278° West 224 258 4,000 -1,140 Descending FlightAware
06:44PM 29.7217 -98.5294 254° West 211 243 3,800 -600 Descending FlightAware ADS-B
06:44PM 29.7203 -98.5322 240° Southwest 210 242 3,800 -1,140 Level FlightAware ADS-B
06:44PM 29.7114 -98.5461 240° Southwest 215 247 3,400 -720 Descending Houston Center
06:45PM 29.6856 -98.5950 239° Southwest 198 228 2,900 -240 Descending Houston Center
06:46PM 29.6411 -98.6106 197° South 189 217 3,000 60 Climbing Houston Center